sensor_id;sensor_type;location;lat;lon;timestamp;temperature;humidity
18365;DHT22;9309;52.126;11.616;2022-11-20T00:01:28;-1.30;79.90
18365;DHT22;9309;52.126;11.616;2022-11-20T00:03:57;-1.20;79.60
18365;DHT22;9309;52.126;11.616;2022-11-20T00:06:27;-1.20;79.90
18365;DHT22;9309;52.126;11.616;2022-11-20T00:08:54;-1.40;80.70
18365;DHT22;9309;52.126;11.616;2022-11-20T00:11:23;-1.30;80.40
18365;DHT22;9309;52.126;11.616;2022-11-20T00:13:52;-1.20;80.70
18365;DHT22;9309;52.126;11.616;2022-11-20T00:16:20;-1.20;80.30
18365;DHT22;9309;52.126;11.616;2022-11-20T00:18:48;-1.10;80.60
18365;DHT22;9309;52.126;11.616;2022-11-20T00:21:17;-1.10;80.00
18365;DHT22;9309;52.126;11.616;2022-11-20T00:23:45;-1.20;80.60
18365;DHT22;9309;52.126;11.616;2022-11-20T00:26:14;-1.20;80.80
18365;DHT22;9309;52.126;11.616;2022-11-20T00:28:43;-1.10;81.00
18365;DHT22;9309;52.126;11.616;2022-11-20T00:31:14;-1.20;80.70
18365;DHT22;9309;52.126;11.616;2022-11-20T00:33:42;-1.30;81.00
18365;DHT22;9309;52.126;11.616;2022-11-20T00:36:12;-1.20;80.80
18365;DHT22;9309;52.126;11.616;2022-11-20T00:38:39;-1.20;80.90
18365;DHT22;9309;52.126;11.616;2022-11-20T00:41:09;-1.30;81.40
18365;DHT22;9309;52.126;11.616;2022-11-20T00:43:37;-1.20;80.80
18365;DHT22;9309;52.126;11.616;2022-11-20T00:46:05;-1.20;80.60
18365;DHT22;9309;52.126;11.616;2022-11-20T00:48:32;-1.30;81.30
18365;DHT22;9309;52.126;11.616;2022-11-20T00:50:59;-1.30;81.10
18365;DHT22;9309;52.126;11.616;2022-11-20T00:53:27;-1.30;80.80
18365;DHT22;9309;52.126;11.616;2022-11-20T00:55:55;-1.20;80.70
18365;DHT22;9309;52.126;11.616;2022-11-20T00:58:24;-1.20;80.20
18365;DHT22;9309;52.126;11.616;2022-11-20T01:00:51;-1.20;80.40
18365;DHT22;9309;52.126;11.616;2022-11-20T01:03:18;-1.20;80.20
18365;DHT22;9309;52.126;11.616;2022-11-20T01:05:45;-1.00;79.70
18365;DHT22;9309;52.126;11.616;2022-11-20T01:08:12;-1.10;79.80
18365;DHT22;9309;52.126;11.616;2022-11-20T01:10:38;-1.10;79.70
18365;DHT22;9309;52.126;11.616;2022-11-20T01:13:05;-1.00;79.30
18365;DHT22;9309;52.126;11.616;2022-11-20T01:16:02;-1.00;78.20
18365;DHT22;9309;52.126;11.616;2022-11-20T01:18:29;-0.80;78.00
18365;DHT22;9309;52.126;11.616;2022-11-20T01:21:00;-0.90;78.50
18365;DHT22;9309;52.126;11.616;2022-11-20T01:23:30;-0.80;77.70
18365;DHT22;9309;52.126;11.616;2022-11-20T01:25:59;-0.80;78.30
18365;DHT22;9309;52.126;11.616;2022-11-20T01:28:26;-0.80;78.10
18365;DHT22;9309;52.126;11.616;2022-11-20T01:30:53;-0.80;77.60
18365;DHT22;9309;52.126;11.616;2022-11-20T01:33:21;-0.80;77.80
18365;DHT22;9309;52.126;11.616;2022-11-20T01:35:48;-0.80;78.30
18365;DHT22;9309;52.126;11.616;2022-11-20T01:38:15;-0.80;78.10
18365;DHT22;9309;52.126;11.616;2022-11-20T01:40:42;-0.90;77.90
18365;DHT22;9309;52.126;11.616;2022-11-20T01:43:14;-0.90;78.00
18365;DHT22;9309;52.126;11.616;2022-11-20T01:46:08;-0.90;77.90
18365;DHT22;9309;52.126;11.616;2022-11-20T01:48:44;-1.00;78.30
18365;DHT22;9309;52.126;11.616;2022-11-20T01:51:19;-1.00;78.60
18365;DHT22;9309;52.126;11.616;2022-11-20T01:53:47;-1.00;78.80
18365;DHT22;9309;52.126;11.616;2022-11-20T01:56:15;-1.00;78.90
18365;DHT22;9309;52.126;11.616;2022-11-20T01:58:45;-0.90;78.80
18365;DHT22;9309;52.126;11.616;2022-11-20T02:01:13;-1.00;78.80
18365;DHT22;9309;52.126;11.616;2022-11-20T02:03:42;-1.00;78.60
18365;DHT22;9309;52.126;11.616;2022-11-20T02:06:13;-1.00;78.60
18365;DHT22;9309;52.126;11.616;2022-11-20T02:08:41;-1.00;79.50
18365;DHT22;9309;52.126;11.616;2022-11-20T02:11:08;-1.00;79.40
18365;DHT22;9309;52.126;11.616;2022-11-20T02:13:35;-1.10;80.10
18365;DHT22;9309;52.126;11.616;2022-11-20T02:16:20;-1.00;80.50
18365;DHT22;9309;52.126;11.616;2022-11-20T02:18:49;-0.90;80.40
18365;DHT22;9309;52.126;11.616;2022-11-20T02:21:24;-0.90;80.00
18365;DHT22;9309;52.126;11.616;2022-11-20T02:24:06;-0.90;79.60
18365;DHT22;9309;52.126;11.616;2022-11-20T02:26:44;-0.90;80.50
18365;DHT22;9309;52.126;11.616;2022-11-20T02:29:13;-0.90;80.60
18365;DHT22;9309;52.126;11.616;2022-11-20T02:31:42;-0.90;81.00
18365;DHT22;9309;52.126;11.616;2022-11-20T02:34:10;-0.80;79.90
18365;DHT22;9309;52.126;11.616;2022-11-20T02:36:38;-0.80;79.80
18365;DHT22;9309;52.126;11.616;2022-11-20T02:39:09;-0.70;79.60
18365;DHT22;9309;52.126;11.616;2022-11-20T02:41:38;-0.70;78.70
18365;DHT22;9309;52.126;11.616;2022-11-20T02:44:05;-0.70;79.10
18365;DHT22;9309;52.126;11.616;2022-11-20T02:46:32;-0.60;78.70
18365;DHT22;9309;52.126;11.616;2022-11-20T02:49:01;-0.60;78.60
18365;DHT22;9309;52.126;11.616;2022-11-20T02:51:29;-0.50;78.50
18365;DHT22;9309;52.126;11.616;2022-11-20T02:53:56;-0.60;78.20
18365;DHT22;9309;52.126;11.616;2022-11-20T02:56:24;-0.70;78.60
18365;DHT22;9309;52.126;11.616;2022-11-20T02:58:51;-0.80;79.40
18365;DHT22;9309;52.126;11.616;2022-11-20T03:01:18;-0.60;78.80
18365;DHT22;9309;52.126;11.616;2022-11-20T03:03:45;-0.50;78.50
18365;DHT22;9309;52.126;11.616;2022-11-20T03:06:14;-0.40;78.10
18365;DHT22;9309;52.126;11.616;2022-11-20T03:08:41;-0.40;77.60
18365;DHT22;9309;52.126;11.616;2022-11-20T03:11:08;-0.40;77.80
18365;DHT22;9309;52.126;11.616;2022-11-20T03:13:36;-0.50;78.40
18365;DHT22;9309;52.126;11.616;2022-11-20T03:16:08;-0.50;79.00
18365;DHT22;9309;52.126;11.616;2022-11-20T03:18:35;-0.50;78.90
18365;DHT22;9309;52.126;11.616;2022-11-20T03:21:02;-0.60;80.20
18365;DHT22;9309;52.126;11.616;2022-11-20T03:23:30;-0.60;80.40
18365;DHT22;9309;52.126;11.616;2022-11-20T03:26:10;-0.50;79.50
18365;DHT22;9309;52.126;11.616;2022-11-20T03:28:39;-0.70;81.20
18365;DHT22;9309;52.126;11.616;2022-11-20T03:31:10;-1.10;82.80
18365;DHT22;9309;52.126;11.616;2022-11-20T03:33:38;-1.30;84.20
18365;DHT22;9309;52.126;11.616;2022-11-20T03:36:07;-1.30;84.90
18365;DHT22;9309;52.126;11.616;2022-11-20T03:38:34;-1.50;85.40
18365;DHT22;9309;52.126;11.616;2022-11-20T03:41:03;-1.60;85.20
18365;DHT22;9309;52.126;11.616;2022-11-20T03:43:31;-1.70;85.30
18365;DHT22;9309;52.126;11.616;2022-11-20T03:45:59;-1.50;83.50
18365;DHT22;9309;52.126;11.616;2022-11-20T03:48:27;-1.30;80.90
18365;DHT22;9309;52.126;11.616;2022-11-20T03:51:07;-1.20;80.60
18365;DHT22;9309;52.126;11.616;2022-11-20T03:53:34;-1.30;80.30
18365;DHT22;9309;52.126;11.616;2022-11-20T03:56:01;-1.40;79.40
18365;DHT22;9309;52.126;11.616;2022-11-20T03:58:27;-1.40;79.00
18365;DHT22;9309;52.126;11.616;2022-11-20T04:00:54;-1.50;78.80
18365;DHT22;9309;52.126;11.616;2022-11-20T04:03:22;-1.60;78.50
18365;DHT22;9309;52.126;11.616;2022-11-20T04:05:49;-1.60;78.90
18365;DHT22;9309;52.126;11.616;2022-11-20T04:08:16;-1.60;78.90
18365;DHT22;9309;52.126;11.616;2022-11-20T04:10:42;-1.60;78.70
18365;DHT22;9309;52.126;11.616;2022-11-20T04:13:09;-1.80;78.90
18365;DHT22;9309;52.126;11.616;2022-11-20T04:15:36;-1.80;79.60
18365;DHT22;9309;52.126;11.616;2022-11-20T04:18:03;-1.70;79.70
18365;DHT22;9309;52.126;11.616;2022-11-20T04:20:31;-1.70;79.10
18365;DHT22;9309;52.126;11.616;2022-11-20T04:22:58;-1.70;80.00
18365;DHT22;9309;52.126;11.616;2022-11-20T04:25:25;-1.70;79.50
18365;DHT22;9309;52.126;11.616;2022-11-20T04:27:51;-1.80;80.20
18365;DHT22;9309;52.126;11.616;2022-11-20T04:30:18;-1.70;79.90
18365;DHT22;9309;52.126;11.616;2022-11-20T04:32:45;-1.80;80.30
18365;DHT22;9309;52.126;11.616;2022-11-20T04:35:12;-1.80;80.50
18365;DHT22;9309;52.126;11.616;2022-11-20T04:37:40;-1.80;80.10
18365;DHT22;9309;52.126;11.616;2022-11-20T04:40:07;-1.80;79.70
18365;DHT22;9309;52.126;11.616;2022-11-20T04:42:34;-1.80;79.90
18365;DHT22;9309;52.126;11.616;2022-11-20T04:45:01;-1.70;79.60
18365;DHT22;9309;52.126;11.616;2022-11-20T04:47:28;-1.70;80.00
18365;DHT22;9309;52.126;11.616;2022-11-20T04:49:54;-1.60;80.00
18365;DHT22;9309;52.126;11.616;2022-11-20T04:52:23;-1.60;79.10
18365;DHT22;9309;52.126;11.616;2022-11-20T04:54:51;-1.70;79.30
18365;DHT22;9309;52.126;11.616;2022-11-20T04:57:19;-1.50;79.20
18365;DHT22;9309;52.126;11.616;2022-11-20T04:59:45;-1.40;78.80
18365;DHT22;9309;52.126;11.616;2022-11-20T05:02:12;-1.70;80.80
18365;DHT22;9309;52.126;11.616;2022-11-20T05:04:39;-2.00;82.30
18365;DHT22;9309;52.126;11.616;2022-11-20T05:07:06;-1.70;81.10
18365;DHT22;9309;52.126;11.616;2022-11-20T05:09:32;-1.70;80.40
18365;DHT22;9309;52.126;11.616;2022-11-20T05:12:00;-1.60;80.10
18365;DHT22;9309;52.126;11.616;2022-11-20T05:14:27;-1.70;80.70
18365;DHT22;9309;52.126;11.616;2022-11-20T05:16:54;-1.70;80.80
18365;DHT22;9309;52.126;11.616;2022-11-20T05:19:21;-1.60;80.40
18365;DHT22;9309;52.126;11.616;2022-11-20T05:21:47;-1.50;80.00
18365;DHT22;9309;52.126;11.616;2022-11-20T05:24:14;-1.50;80.00
18365;DHT22;9309;52.126;11.616;2022-11-20T05:26:41;-1.50;79.20
18365;DHT22;9309;52.126;11.616;2022-11-20T05:29:11;-1.40;79.30
18365;DHT22;9309;52.126;11.616;2022-11-20T05:31:39;-1.50;80.40
18365;DHT22;9309;52.126;11.616;2022-11-20T05:34:06;-1.50;80.60
18365;DHT22;9309;52.126;11.616;2022-11-20T05:36:33;-1.40;81.00
18365;DHT22;9309;52.126;11.616;2022-11-20T05:39:00;-1.30;80.90
18365;DHT22;9309;52.126;11.616;2022-11-20T05:41:27;-1.40;80.40
18365;DHT22;9309;52.126;11.616;2022-11-20T05:43:55;-1.50;80.40
18365;DHT22;9309;52.126;11.616;2022-11-20T05:46:23;-1.60;82.00
18365;DHT22;9309;52.126;11.616;2022-11-20T05:48:50;-1.50;81.80
18365;DHT22;9309;52.126;11.616;2022-11-20T05:51:18;-1.50;81.70
18365;DHT22;9309;52.126;11.616;2022-11-20T05:53:45;-1.40;81.80
18365;DHT22;9309;52.126;11.616;2022-11-20T05:56:14;-1.80;82.70
18365;DHT22;9309;52.126;11.616;2022-11-20T05:58:41;-2.10;83.80
18365;DHT22;9309;52.126;11.616;2022-11-20T06:01:11;-2.30;84.80
18365;DHT22;9309;52.126;11.616;2022-11-20T06:03:40;-2.40;84.10
18365;DHT22;9309;52.126;11.616;2022-11-20T06:06:08;-2.20;84.00
18365;DHT22;9309;52.126;11.616;2022-11-20T06:08:34;-2.20;82.00
18365;DHT22;9309;52.126;11.616;2022-11-20T06:11:05;-2.20;81.50
18365;DHT22;9309;52.126;11.616;2022-11-20T06:13:32;-2.00;80.00
18365;DHT22;9309;52.126;11.616;2022-11-20T06:15:59;-2.00;79.60
18365;DHT22;9309;52.126;11.616;2022-11-20T06:18:26;-2.00;79.00
18365;DHT22;9309;52.126;11.616;2022-11-20T06:21:01;-2.10;79.30
18365;DHT22;9309;52.126;11.616;2022-11-20T06:23:30;-2.20;79.50
18365;DHT22;9309;52.126;11.616;2022-11-20T06:26:01;-2.20;80.00
18365;DHT22;9309;52.126;11.616;2022-11-20T06:28:27;-2.50;82.40
18365;DHT22;9309;52.126;11.616;2022-11-20T06:30:54;-2.50;82.90
18365;DHT22;9309;52.126;11.616;2022-11-20T06:33:21;-2.60;82.80
18365;DHT22;9309;52.126;11.616;2022-11-20T06:35:48;-2.60;82.70
18365;DHT22;9309;52.126;11.616;2022-11-20T06:38:16;-2.40;82.40
18365;DHT22;9309;52.126;11.616;2022-11-20T06:40:43;-2.30;81.60
18365;DHT22;9309;52.126;11.616;2022-11-20T06:43:10;-2.40;82.10
18365;DHT22;9309;52.126;11.616;2022-11-20T06:45:37;-2.50;82.80
18365;DHT22;9309;52.126;11.616;2022-11-20T06:48:04;-2.50;83.10
18365;DHT22;9309;52.126;11.616;2022-11-20T06:50:31;-2.30;82.30
18365;DHT22;9309;52.126;11.616;2022-11-20T06:53:00;-2.40;82.40
18365;DHT22;9309;52.126;11.616;2022-11-20T06:55:29;-2.60;83.60
18365;DHT22;9309;52.126;11.616;2022-11-20T06:57:56;-2.50;83.50
18365;DHT22;9309;52.126;11.616;2022-11-20T07:00:23;-2.50;82.00
18365;DHT22;9309;52.126;11.616;2022-11-20T07:02:49;-2.70;83.60
18365;DHT22;9309;52.126;11.616;2022-11-20T07:05:17;-2.80;84.40
18365;DHT22;9309;52.126;11.616;2022-11-20T07:07:44;-2.60;83.80
18365;DHT22;9309;52.126;11.616;2022-11-20T07:10:11;-2.60;83.60
18365;DHT22;9309;52.126;11.616;2022-11-20T07:12:39;-2.70;83.90
18365;DHT22;9309;52.126;11.616;2022-11-20T07:15:07;-2.60;84.00
18365;DHT22;9309;52.126;11.616;2022-11-20T07:17:33;-2.80;85.00
18365;DHT22;9309;52.126;11.616;2022-11-20T07:20:00;-3.00;85.80
18365;DHT22;9309;52.126;11.616;2022-11-20T07:22:27;-3.10;86.20
18365;DHT22;9309;52.126;11.616;2022-11-20T07:24:54;-3.10;86.30
18365;DHT22;9309;52.126;11.616;2022-11-20T07:27:21;-3.10;86.20
18365;DHT22;9309;52.126;11.616;2022-11-20T07:29:49;-3.10;86.30
18365;DHT22;9309;52.126;11.616;2022-11-20T07:32:16;-3.00;86.00
18365;DHT22;9309;52.126;11.616;2022-11-20T07:34:42;-2.80;85.40
18365;DHT22;9309;52.126;11.616;2022-11-20T07:37:09;-2.50;83.30
18365;DHT22;9309;52.126;11.616;2022-11-20T07:39:36;-2.40;82.20
18365;DHT22;9309;52.126;11.616;2022-11-20T07:42:03;-2.30;82.20
18365;DHT22;9309;52.126;11.616;2022-11-20T07:44:29;-2.20;83.00
18365;DHT22;9309;52.126;11.616;2022-11-20T07:46:58;-2.20;82.60
18365;DHT22;9309;52.126;11.616;2022-11-20T07:49:24;-2.00;80.60
18365;DHT22;9309;52.126;11.616;2022-11-20T07:51:52;-1.40;81.00
18365;DHT22;9309;52.126;11.616;2022-11-20T07:54:20;0.10;76.30
18365;DHT22;9309;52.126;11.616;2022-11-20T07:56:47;1.70;68.20
18365;DHT22;9309;52.126;11.616;2022-11-20T07:59:14;2.80;64.10
18365;DHT22;9309;52.126;11.616;2022-11-20T08:01:41;4.20;58.80
18365;DHT22;9309;52.126;11.616;2022-11-20T08:04:09;4.60;56.10
18365;DHT22;9309;52.126;11.616;2022-11-20T08:06:36;4.80;53.60
18365;DHT22;9309;52.126;11.616;2022-11-20T08:09:03;4.80;52.60
18365;DHT22;9309;52.126;11.616;2022-11-20T08:11:30;3.90;54.00
18365;DHT22;9309;52.126;11.616;2022-11-20T08:14:14;3.00;56.80
18365;DHT22;9309;52.126;11.616;2022-11-20T08:16:42;1.80;60.50
18365;DHT22;9309;52.126;11.616;2022-11-20T08:19:11;1.30;62.70
18365;DHT22;9309;52.126;11.616;2022-11-20T08:21:38;1.00;64.10
18365;DHT22;9309;52.126;11.616;2022-11-20T08:24:05;0.60;65.60
18365;DHT22;9309;52.126;11.616;2022-11-20T08:26:33;-0.10;68.70
18365;DHT22;9309;52.126;11.616;2022-11-20T08:28:59;-0.10;70.00
18365;DHT22;9309;52.126;11.616;2022-11-20T08:31:27;-0.20;71.10
18365;DHT22;9309;52.126;11.616;2022-11-20T08:33:54;-0.10;70.90
18365;DHT22;9309;52.126;11.616;2022-11-20T08:36:23;-0.40;73.40
18365;DHT22;9309;52.126;11.616;2022-11-20T08:38:51;-0.60;75.30
18365;DHT22;9309;52.126;11.616;2022-11-20T08:41:18;-0.70;75.20
18365;DHT22;9309;52.126;11.616;2022-11-20T08:43:53;-0.80;76.20
18365;DHT22;9309;52.126;11.616;2022-11-20T08:46:20;-0.80;76.20
18365;DHT22;9309;52.126;11.616;2022-11-20T08:48:47;-0.80;76.70
18365;DHT22;9309;52.126;11.616;2022-11-20T08:51:14;-0.70;76.30
18365;DHT22;9309;52.126;11.616;2022-11-20T08:53:42;-0.60;75.90
18365;DHT22;9309;52.126;11.616;2022-11-20T08:56:09;-0.40;75.90
18365;DHT22;9309;52.126;11.616;2022-11-20T08:58:36;-0.30;75.10
18365;DHT22;9309;52.126;11.616;2022-11-20T09:01:06;-0.40;75.60
18365;DHT22;9309;52.126;11.616;2022-11-20T09:03:32;-0.50;75.80
18365;DHT22;9309;52.126;11.616;2022-11-20T09:06:00;-0.20;75.40
18365;DHT22;9309;52.126;11.616;2022-11-20T09:08:27;0.20;72.90
18365;DHT22;9309;52.126;11.616;2022-11-20T09:10:57;0.30;71.20
18365;DHT22;9309;52.126;11.616;2022-11-20T09:13:25;0.40;71.00
18365;DHT22;9309;52.126;11.616;2022-11-20T09:15:55;0.40;70.50
18365;DHT22;9309;52.126;11.616;2022-11-20T09:18:23;0.50;70.80
18365;DHT22;9309;52.126;11.616;2022-11-20T09:20:50;0.50;70.20
18365;DHT22;9309;52.126;11.616;2022-11-20T09:23:17;0.50;70.60
18365;DHT22;9309;52.126;11.616;2022-11-20T09:25:44;0.40;71.60
18365;DHT22;9309;52.126;11.616;2022-11-20T09:28:12;0.70;70.80
18365;DHT22;9309;52.126;11.616;2022-11-20T09:30:39;0.70;70.80
18365;DHT22;9309;52.126;11.616;2022-11-20T09:33:06;0.50;72.10
18365;DHT22;9309;52.126;11.616;2022-11-20T09:35:33;0.50;71.80
18365;DHT22;9309;52.126;11.616;2022-11-20T09:38:04;0.40;74.00
18365;DHT22;9309;52.126;11.616;2022-11-20T09:40:32;0.40;73.60
18365;DHT22;9309;52.126;11.616;2022-11-20T09:43:03;0.40;73.80
18365;DHT22;9309;52.126;11.616;2022-11-20T09:45:50;0.30;75.30
18365;DHT22;9309;52.126;11.616;2022-11-20T09:48:33;0.30;74.70
18365;DHT22;9309;52.126;11.616;2022-11-20T09:51:13;0.30;75.10
18365;DHT22;9309;52.126;11.616;2022-11-20T09:53:46;0.60;73.60
18365;DHT22;9309;52.126;11.616;2022-11-20T09:56:17;0.60;73.00
18365;DHT22;9309;52.126;11.616;2022-11-20T09:58:47;0.70;71.70
18365;DHT22;9309;52.126;11.616;2022-11-20T10:01:18;0.80;71.00
18365;DHT22;9309;52.126;11.616;2022-11-20T10:03:52;0.90;70.80
18365;DHT22;9309;52.126;11.616;2022-11-20T10:06:24;0.80;71.00
18365;DHT22;9309;52.126;11.616;2022-11-20T10:09:01;0.80;70.70
18365;DHT22;9309;52.126;11.616;2022-11-20T10:11:35;0.70;71.20
18365;DHT22;9309;52.126;11.616;2022-11-20T10:14:16;0.80;71.70
18365;DHT22;9309;52.126;11.616;2022-11-20T10:16:53;0.80;71.70
18365;DHT22;9309;52.126;11.616;2022-11-20T10:19:33;0.90;72.00
18365;DHT22;9309;52.126;11.616;2022-11-20T10:22:13;1.00;71.90
18365;DHT22;9309;52.126;11.616;2022-11-20T10:24:50;0.90;72.00
18365;DHT22;9309;52.126;11.616;2022-11-20T10:27:45;0.90;72.30
18365;DHT22;9309;52.126;11.616;2022-11-20T10:30:15;1.10;72.30
18365;DHT22;9309;52.126;11.616;2022-11-20T10:32:47;1.10;72.20
18365;DHT22;9309;52.126;11.616;2022-11-20T10:35:21;1.20;72.10
18365;DHT22;9309;52.126;11.616;2022-11-20T10:37:53;1.10;72.10
18365;DHT22;9309;52.126;11.616;2022-11-20T10:40:27;1.30;71.90
18365;DHT22;9309;52.126;11.616;2022-11-20T10:42:57;1.30;71.10
18365;DHT22;9309;52.126;11.616;2022-11-20T10:45:40;1.40;70.50
18365;DHT22;9309;52.126;11.616;2022-11-20T10:48:15;1.60;68.90
18365;DHT22;9309;52.126;11.616;2022-11-20T10:50:50;1.70;69.20
18365;DHT22;9309;52.126;11.616;2022-11-20T10:53:32;1.60;69.20
18365;DHT22;9309;52.126;11.616;2022-11-20T10:56:11;1.80;68.70
18365;DHT22;9309;52.126;11.616;2022-11-20T10:58:52;2.00;67.90
18365;DHT22;9309;52.126;11.616;2022-11-20T11:01:25;2.30;66.60
18365;DHT22;9309;52.126;11.616;2022-11-20T11:03:55;2.00;66.60
18365;DHT22;9309;52.126;11.616;2022-11-20T11:06:28;2.30;65.60
18365;DHT22;9309;52.126;11.616;2022-11-20T11:08:58;2.10;65.80
18365;DHT22;9309;52.126;11.616;2022-11-20T11:11:29;2.40;66.00
18365;DHT22;9309;52.126;11.616;2022-11-20T11:14:05;2.50;64.90
18365;DHT22;9309;52.126;11.616;2022-11-20T11:16:35;2.60;64.70
18365;DHT22;9309;52.126;11.616;2022-11-20T11:19:11;2.30;65.80
18365;DHT22;9309;52.126;11.616;2022-11-20T11:21:38;2.10;66.30
18365;DHT22;9309;52.126;11.616;2022-11-20T11:24:20;2.20;66.00
18365;DHT22;9309;52.126;11.616;2022-11-20T11:26:53;2.40;65.10
18365;DHT22;9309;52.126;11.616;2022-11-20T11:29:23;2.50;65.40
18365;DHT22;9309;52.126;11.616;2022-11-20T11:32:03;2.80;64.30
18365;DHT22;9309;52.126;11.616;2022-11-20T11:34:34;3.00;63.30
18365;DHT22;9309;52.126;11.616;2022-11-20T11:37:01;3.30;63.30
18365;DHT22;9309;52.126;11.616;2022-11-20T11:39:31;3.20;60.90
18365;DHT22;9309;52.126;11.616;2022-11-20T11:42:00;3.00;61.20
18365;DHT22;9309;52.126;11.616;2022-11-20T11:44:32;3.20;61.00
18365;DHT22;9309;52.126;11.616;2022-11-20T11:47:27;3.40;60.00
18365;DHT22;9309;52.126;11.616;2022-11-20T11:50:14;3.80;59.20
18365;DHT22;9309;52.126;11.616;2022-11-20T11:52:45;4.00;58.60
18365;DHT22;9309;52.126;11.616;2022-11-20T11:55:17;3.70;59.10
18365;DHT22;9309;52.126;11.616;2022-11-20T11:57:49;3.60;59.30
18365;DHT22;9309;52.126;11.616;2022-11-20T12:00:20;3.30;59.60
18365;DHT22;9309;52.126;11.616;2022-11-20T12:02:54;3.30;60.40
18365;DHT22;9309;52.126;11.616;2022-11-20T12:05:28;3.20;59.80
18365;DHT22;9309;52.126;11.616;2022-11-20T12:07:59;3.40;59.30
18365;DHT22;9309;52.126;11.616;2022-11-20T12:10:40;3.50;59.60
18365;DHT22;9309;52.126;11.616;2022-11-20T12:13:17;3.50;60.10
18365;DHT22;9309;52.126;11.616;2022-11-20T12:15:48;3.10;60.70
18365;DHT22;9309;52.126;11.616;2022-11-20T12:18:18;2.70;63.50
18365;DHT22;9309;52.126;11.616;2022-11-20T12:20:56;2.70;64.10
18365;DHT22;9309;52.126;11.616;2022-11-20T12:23:30;2.50;64.90
18365;DHT22;9309;52.126;11.616;2022-11-20T12:26:06;2.60;65.10
18365;DHT22;9309;52.126;11.616;2022-11-20T12:28:44;2.70;64.90
18365;DHT22;9309;52.126;11.616;2022-11-20T12:31:31;2.80;64.90
18365;DHT22;9309;52.126;11.616;2022-11-20T12:34:27;2.90;64.70
18365;DHT22;9309;52.126;11.616;2022-11-20T12:37:04;3.20;64.20
18365;DHT22;9309;52.126;11.616;2022-11-20T12:39:35;3.50;63.70
18365;DHT22;9309;52.126;11.616;2022-11-20T12:42:37;3.40;63.10
18365;DHT22;9309;52.126;11.616;2022-11-20T12:45:37;3.30;63.70
18365;DHT22;9309;52.126;11.616;2022-11-20T12:48:22;3.20;64.30
18365;DHT22;9309;52.126;11.616;2022-11-20T12:51:03;3.20;64.10
18365;DHT22;9309;52.126;11.616;2022-11-20T12:53:40;3.10;64.60
18365;DHT22;9309;52.126;11.616;2022-11-20T12:56:20;3.20;64.90
18365;DHT22;9309;52.126;11.616;2022-11-20T12:58:55;3.30;64.70
18365;DHT22;9309;52.126;11.616;2022-11-20T13:01:27;3.50;64.60
18365;DHT22;9309;52.126;11.616;2022-11-20T13:04:14;3.40;64.70
18365;DHT22;9309;52.126;11.616;2022-11-20T13:06:44;3.40;65.10
18365;DHT22;9309;52.126;11.616;2022-11-20T13:09:14;3.60;64.20
18365;DHT22;9309;52.126;11.616;2022-11-20T13:11:44;3.50;64.10
18365;DHT22;9309;52.126;11.616;2022-11-20T13:14:21;3.50;65.10
18365;DHT22;9309;52.126;11.616;2022-11-20T13:16:55;3.20;65.40
18365;DHT22;9309;52.126;11.616;2022-11-20T13:19:24;2.90;66.50
18365;DHT22;9309;52.126;11.616;2022-11-20T13:21:52;2.60;67.30
18365;DHT22;9309;52.126;11.616;2022-11-20T13:24:28;2.50;68.00
18365;DHT22;9309;52.126;11.616;2022-11-20T13:27:01;2.40;69.30
18365;DHT22;9309;52.126;11.616;2022-11-20T13:29:28;2.30;68.80
18365;DHT22;9309;52.126;11.616;2022-11-20T13:32:06;2.20;69.50
18365;DHT22;9309;52.126;11.616;2022-11-20T13:34:33;2.20;69.40
18365;DHT22;9309;52.126;11.616;2022-11-20T13:37:01;2.10;69.90
18365;DHT22;9309;52.126;11.616;2022-11-20T13:39:32;2.30;69.10
18365;DHT22;9309;52.126;11.616;2022-11-20T13:42:01;2.50;68.40
18365;DHT22;9309;52.126;11.616;2022-11-20T13:44:33;2.40;68.70
18365;DHT22;9309;52.126;11.616;2022-11-20T13:47:01;2.40;69.00
18365;DHT22;9309;52.126;11.616;2022-11-20T13:49:31;2.40;68.60
18365;DHT22;9309;52.126;11.616;2022-11-20T13:52:20;2.40;69.10
18365;DHT22;9309;52.126;11.616;2022-11-20T13:55:05;2.30;69.70
18365;DHT22;9309;52.126;11.616;2022-11-20T14:00:44;2.00;70.10
18365;DHT22;9309;52.126;11.616;2022-11-20T14:03:17;2.00;70.70
18365;DHT22;9309;52.126;11.616;2022-11-20T14:05:50;2.00;71.10
18365;DHT22;9309;52.126;11.616;2022-11-20T14:08:26;1.80;71.90
18365;DHT22;9309;52.126;11.616;2022-11-20T14:11:14;1.90;71.80
18365;DHT22;9309;52.126;11.616;2022-11-20T14:13:56;2.00;72.10
18365;DHT22;9309;52.126;11.616;2022-11-20T14:16:24;2.20;71.30
18365;DHT22;9309;52.126;11.616;2022-11-20T14:18:51;2.30;71.00
18365;DHT22;9309;52.126;11.616;2022-11-20T14:21:23;2.50;70.50
18365;DHT22;9309;52.126;11.616;2022-11-20T14:23:53;2.50;70.80
18365;DHT22;9309;52.126;11.616;2022-11-20T14:26:21;2.30;71.20
18365;DHT22;9309;52.126;11.616;2022-11-20T14:28:49;2.40;71.10
18365;DHT22;9309;52.126;11.616;2022-11-20T14:31:23;2.40;70.70
18365;DHT22;9309;52.126;11.616;2022-11-20T14:33:52;2.20;71.70
18365;DHT22;9309;52.126;11.616;2022-11-20T14:36:21;2.00;72.50
18365;DHT22;9309;52.126;11.616;2022-11-20T14:38:49;2.00;72.50
18365;DHT22;9309;52.126;11.616;2022-11-20T14:41:18;1.90;72.70
18365;DHT22;9309;52.126;11.616;2022-11-20T14:43:50;1.90;73.00
18365;DHT22;9309;52.126;11.616;2022-11-20T14:46:17;1.80;72.80
18365;DHT22;9309;52.126;11.616;2022-11-20T14:48:46;1.80;73.10
18365;DHT22;9309;52.126;11.616;2022-11-20T14:51:28;1.60;73.90
18365;DHT22;9309;52.126;11.616;2022-11-20T14:53:56;1.60;74.70
18365;DHT22;9309;52.126;11.616;2022-11-20T14:56:23;1.50;75.30
18365;DHT22;9309;52.126;11.616;2022-11-20T14:58:58;1.40;75.20
18365;DHT22;9309;52.126;11.616;2022-11-20T15:01:26;1.50;74.90
18365;DHT22;9309;52.126;11.616;2022-11-20T15:04:00;1.40;75.30
18365;DHT22;9309;52.126;11.616;2022-11-20T15:06:28;1.30;75.60
18365;DHT22;9309;52.126;11.616;2022-11-20T15:08:55;1.30;75.50
18365;DHT22;9309;52.126;11.616;2022-11-20T15:11:27;1.30;75.80
18365;DHT22;9309;52.126;11.616;2022-11-20T15:13:56;1.20;76.50
18365;DHT22;9309;52.126;11.616;2022-11-20T15:16:25;1.00;77.10
18365;DHT22;9309;52.126;11.616;2022-11-20T15:18:53;1.00;77.40
18365;DHT22;9309;52.126;11.616;2022-11-20T15:21:21;1.00;77.30
18365;DHT22;9309;52.126;11.616;2022-11-20T15:23:48;0.90;77.60
18365;DHT22;9309;52.126;11.616;2022-11-20T15:26:19;0.90;77.70
18365;DHT22;9309;52.126;11.616;2022-11-20T15:28:49;0.90;77.90
18365;DHT22;9309;52.126;11.616;2022-11-20T15:31:19;0.90;77.60
18365;DHT22;9309;52.126;11.616;2022-11-20T15:33:47;0.90;77.60
18365;DHT22;9309;52.126;11.616;2022-11-20T15:36:14;1.00;77.40
18365;DHT22;9309;52.126;11.616;2022-11-20T15:38:41;0.90;77.40
18365;DHT22;9309;52.126;11.616;2022-11-20T15:41:08;0.80;77.60
18365;DHT22;9309;52.126;11.616;2022-11-20T15:43:36;0.80;77.70
18365;DHT22;9309;52.126;11.616;2022-11-20T15:46:05;0.70;78.20
18365;DHT22;9309;52.126;11.616;2022-11-20T15:48:38;0.70;78.50
18365;DHT22;9309;52.126;11.616;2022-11-20T15:51:17;0.60;78.50
18365;DHT22;9309;52.126;11.616;2022-11-20T15:53:47;0.50;79.10
18365;DHT22;9309;52.126;11.616;2022-11-20T15:56:14;0.50;78.90
18365;DHT22;9309;52.126;11.616;2022-11-20T15:58:42;0.40;79.10
18365;DHT22;9309;52.126;11.616;2022-11-20T16:01:10;0.50;78.90